createdAt,value
2023-01-25T00:01:16.501Z,103766.41
2023-01-25T00:04:20.625Z,103755.75
2023-01-25T00:07:23.466Z,103752.22
2023-01-25T00:10:27.830Z,103746.00
2023-01-25T00:13:30.714Z,103738.91
2023-01-25T00:16:33.817Z,103725.56
2023-01-25T00:19:36.666Z,103725.56
2023-01-25T00:22:39.702Z,103717.59
2023-01-25T00:25:43.879Z,103709.59
2023-01-25T00:28:50.244Z,103707.84
2023-01-25T00:32:03.852Z,103713.16
2023-01-25T00:35:13.158Z,103714.94
2023-01-25T00:38:29.776Z,103718.50
2023-01-25T00:41:34.428Z,103714.94
2023-01-25T00:44:37.381Z,103720.25
2023-01-25T00:47:40.455Z,103724.69
2023-01-25T00:50:43.287Z,103719.38
2023-01-25T00:53:46.402Z,103725.59
2023-01-25T00:56:52.417Z,103717.59
2023-01-25T00:59:55.378Z,103711.38
2023-01-25T01:02:58.538Z,103714.03
2023-01-25T01:06:03.758Z,103720.25
2023-01-25T01:09:07.649Z,103706.97
2023-01-25T01:12:12.031Z,103702.50
2023-01-25T01:15:14.911Z,103702.50
2023-01-25T01:18:17.762Z,103707.81
2023-01-25T01:21:21.696Z,103705.16
2023-01-25T01:24:24.720Z,103698.97
2023-01-25T01:27:29.002Z,103703.41
2023-01-25T01:30:31.806Z,103698.06
2023-01-25T01:33:36.132Z,103691.84
2023-01-25T01:36:39.165Z,103701.63
2023-01-25T01:39:42.112Z,103701.63
2023-01-25T01:43:00.660Z,103688.31
2023-01-25T01:46:05.904Z,103682.09
2023-01-25T01:49:17.478Z,103675.88
2023-01-25T01:52:24.590Z,103680.34
2023-01-25T01:55:29.130Z,103680.34
2023-01-25T01:58:34.021Z,103681.19
2023-01-25T02:01:37.224Z,103682.09
2023-01-25T02:04:40.142Z,103678.56
2023-01-25T02:07:52.046Z,103684.78
2023-01-25T02:10:55.966Z,103680.34
2023-01-25T02:14:01.600Z,103675.88
2023-01-25T02:17:05.212Z,103670.56
2023-01-25T02:20:15.029Z,103670.56
2023-01-25T02:23:23.275Z,103664.34
2023-01-25T02:26:27.844Z,103663.44
2023-01-25T02:29:31.352Z,103661.69
2023-01-25T02:32:35.011Z,103649.28
2023-01-25T02:35:41.969Z,103651.03
2023-01-25T02:38:49.379Z,103650.16
2023-01-25T02:41:53.840Z,103655.47
2023-01-25T02:44:57.014Z,103651.94
2023-01-25T02:48:00.817Z,103656.38
2023-01-25T02:51:04.329Z,103651.94
2023-01-25T02:54:09.134Z,103654.59
2023-01-25T02:57:13.430Z,103643.94
2023-01-25T03:00:21.141Z,103648.34
2023-01-25T03:03:23.950Z,103643.03
2023-01-25T03:06:26.988Z,103632.38
2023-01-25T03:09:30.355Z,103638.63
2023-01-25T03:12:34.603Z,103635.03
2023-01-25T03:15:37.386Z,103631.53
2023-01-25T03:18:41.558Z,103627.94
2023-01-25T03:21:44.359Z,103623.53
2023-01-25T03:24:47.322Z,103617.31
2023-01-25T03:27:51.742Z,103615.53
2023-01-25T03:30:54.728Z,103617.31
2023-01-25T03:33:57.639Z,103607.56
2023-01-25T03:37:05.350Z,103612.00
2023-01-25T03:40:11.647Z,103603.09
2023-01-25T03:43:21.330Z,103596.91
2023-01-25T03:46:26.676Z,103582.69
2023-01-25T03:49:29.862Z,103584.47
2023-01-25T03:52:38.528Z,103579.13
2023-01-25T03:55:43.875Z,103574.69
2023-01-25T03:58:48.266Z,103571.13
2023-01-25T04:01:51.281Z,103563.16
2023-01-25T04:04:55.213Z,103563.16
2023-01-25T04:07:58.445Z,103549.84
2023-01-25T04:11:11.137Z,103549.84
2023-01-25T04:14:15.626Z,103549.84
2023-01-25T04:17:31.797Z,103541.88
2023-01-25T04:20:37.706Z,103534.75
2023-01-25T04:23:40.665Z,103532.09
2023-01-25T04:26:43.497Z,103529.44
2023-01-25T04:29:47.799Z,103528.56
2023-01-25T04:32:55.246Z,103526.75
2023-01-25T04:36:06.149Z,103525.00
2023-01-25T04:39:09.086Z,103525.00
2023-01-25T04:42:13.368Z,103522.34
2023-01-25T04:45:18.241Z,103511.72
2023-01-25T04:48:21.479Z,103517.91
2023-01-25T04:51:30.424Z,103516.13
2023-01-25T04:54:33.917Z,103517.00
2023-01-25T04:57:36.983Z,103514.34
2023-01-25T05:00:41.301Z,103508.16
2023-01-25T05:03:44.612Z,103503.69
2023-01-25T05:06:57.141Z,103502.84
2023-01-25T05:10:01.275Z,103501.94
2023-01-25T05:13:04.142Z,103499.28
2023-01-25T05:16:09.833Z,103496.63
2023-01-25T05:19:13.747Z,103494.84
2023-01-25T05:22:29.335Z,103499.31
2023-01-25T05:25:50.700Z,103497.50
2023-01-25T05:29:01.214Z,103498.41
2023-01-25T05:32:20.880Z,103494.84
2023-01-25T05:35:23.769Z,103489.50
2023-01-25T05:38:31.370Z,103480.66
2023-01-25T05:41:35.260Z,103482.44
2023-01-25T05:44:39.004Z,103481.53
2023-01-25T05:47:43.958Z,103478.88
2023-01-25T05:50:47.096Z,103477.09
2023-01-25T05:53:56.588Z,103471.78
2023-01-25T05:57:00.613Z,103470.00
2023-01-25T06:00:04.590Z,103470.00
2023-01-25T06:03:17.782Z,103468.22
2023-01-25T06:06:22.575Z,103469.09
2023-01-25T06:09:26.372Z,103462.88
2023-01-25T06:12:29.583Z,103451.34
2023-01-25T06:15:34.525Z,103443.34
2023-01-25T06:19:01.758Z,103447.78
2023-01-25T06:22:30.518Z,103445.13
2023-01-25T06:25:33.445Z,103451.34
2023-01-25T06:28:37.549Z,103458.44
2023-01-25T06:31:40.477Z,103457.56
2023-01-25T06:34:46.378Z,103450.44
2023-01-25T06:37:56.707Z,103441.59
2023-01-25T06:41:02.934Z,103449.59
2023-01-25T06:44:06.085Z,103449.59
2023-01-25T06:47:10.036Z,103443.38
2023-01-25T06:50:14.470Z,103436.28
2023-01-25T06:53:17.458Z,103433.59
2023-01-25T06:56:22.279Z,103431.84
2023-01-25T06:59:25.246Z,103430.03
2023-01-25T07:02:28.452Z,103430.94
2023-01-25T07:05:32.758Z,103430.06
2023-01-25T07:08:36.485Z,103416.75
2023-01-25T07:11:39.364Z,103421.16
2023-01-25T07:14:42.270Z,103417.66
2023-01-25T07:17:45.230Z,103416.75
2023-01-25T07:20:49.591Z,103411.44
2023-01-25T07:23:52.929Z,103404.34
2023-01-25T07:26:56.230Z,103404.34
2023-01-25T07:29:59.138Z,103402.56
2023-01-25T07:33:01.954Z,103404.34
2023-01-25T07:36:08.823Z,103399.91
2023-01-25T07:39:12.680Z,103396.41
2023-01-25T07:42:15.762Z,103398.13
2023-01-25T07:45:30.274Z,103402.53
2023-01-25T07:48:33.395Z,103398.91
2023-01-25T07:51:37.589Z,103393.53
2023-01-25T07:54:40.437Z,103379.25
2023-01-25T07:57:43.331Z,103374.78
2023-01-25T08:00:46.387Z,103375.56
2023-01-25T08:03:50.389Z,103368.38
2023-01-25T08:06:54.697Z,103375.44
2023-01-25T08:09:57.490Z,103361.22
2023-01-25T08:13:00.584Z,103362.06
2023-01-25T08:16:03.599Z,103357.63
2023-01-25T08:19:06.657Z,103348.69
2023-01-25T08:22:13.147Z,103347.81
2023-01-25T08:25:16.038Z,103354.94
2023-01-25T08:28:18.876Z,103359.41
2023-01-25T08:31:23.517Z,103348.78
2023-01-25T08:34:26.442Z,103354.13
2023-01-25T08:37:30.630Z,103354.19
2023-01-25T08:40:35.861Z,103340.84
2023-01-25T08:43:41.463Z,103344.41
2023-01-25T08:46:45.749Z,103341.78
2023-01-25T08:49:48.848Z,103342.69
2023-01-25T08:52:53.043Z,103339.16
2023-01-25T08:55:56.034Z,103340.94
2023-01-25T08:58:58.849Z,103346.31
2023-01-25T09:02:01.727Z,103342.75
2023-01-25T09:05:04.757Z,103338.34
2023-01-25T09:08:11.389Z,103343.66
2023-01-25T09:11:15.899Z,103344.63
2023-01-25T09:14:18.820Z,103338.44
2023-01-25T09:17:21.673Z,103340.25
2023-01-25T09:20:25.341Z,103338.50
2023-01-25T09:23:29.614Z,103336.72
2023-01-25T09:26:33.537Z,103332.28
2023-01-25T09:29:39.416Z,103337.63
2023-01-25T09:32:42.904Z,103333.19
2023-01-25T09:35:49.560Z,103313.66
2023-01-25T09:38:54.424Z,103310.03
2023-01-25T09:42:33.399Z,103307.28
2023-01-25T09:45:37.221Z,103308.09
2023-01-25T09:48:50.171Z,103297.34
2023-01-25T09:52:24.734Z,103293.72
2023-01-25T09:55:31.544Z,103294.56
2023-01-25T09:58:37.495Z,103288.28
2023-01-25T10:01:48.039Z,103289.13
2023-01-25T10:04:54.343Z,103288.19
2023-01-25T10:08:03.129Z,103288.19
2023-01-25T10:11:17.918Z,103287.31
2023-01-25T10:14:21.585Z,103270.41
2023-01-25T10:17:31.606Z,103267.78
2023-01-25T10:20:44.970Z,103272.25
2023-01-25T10:24:05.024Z,103269.59
2023-01-25T10:27:22.875Z,103265.19
2023-01-25T10:30:30.367Z,103261.66
2023-01-25T10:33:38.146Z,103241.28
2023-01-25T10:36:42.592Z,103245.75
2023-01-25T10:39:54.785Z,103245.78
2023-01-25T10:43:03.470Z,103243.13
2023-01-25T10:46:18.878Z,103235.19
2023-01-25T10:49:26.390Z,103224.56
2023-01-25T10:52:31.605Z,103218.38
2023-01-25T10:55:34.598Z,103210.38
2023-01-25T10:58:40.666Z,103209.50
2023-01-25T11:01:43.956Z,103196.19
2023-01-25T11:04:48.809Z,103190.91
2023-01-25T11:07:51.748Z,103187.38
2023-01-25T11:10:55.121Z,103185.59
2023-01-25T11:13:59.442Z,103183.84
2023-01-25T11:17:05.182Z,103182.06
2023-01-25T11:20:18.856Z,103174.06
2023-01-25T11:23:25.186Z,103163.38
2023-01-25T11:26:29.354Z,103163.38
2023-01-25T11:29:33.855Z,103162.53
2023-01-25T11:32:39.281Z,103151.91
2023-01-25T11:35:53.820Z,103144.81
2023-01-25T11:39:09.543Z,103133.28
2023-01-25T11:42:28.665Z,103129.75
2023-01-25T11:46:01.827Z,103127.09
2023-01-25T11:49:19.057Z,103113.78
2023-01-25T11:52:30.197Z,103111.13
2023-01-25T11:55:40.667Z,103100.50
2023-01-25T11:59:02.089Z,103094.28
2023-01-25T12:02:29.795Z,103095.19
2023-01-25T12:05:44.292Z,103089.88
2023-01-25T12:09:03.556Z,103079.22
2023-01-25T12:12:17.786Z,103073.88
2023-01-25T12:15:48.467Z,103073.88
2023-01-25T12:19:10.742Z,103059.69
2023-01-25T12:22:32.048Z,103053.44
2023-01-25T12:25:47.167Z,103048.09
2023-01-25T12:28:53.000Z,103054.31
2023-01-25T12:32:01.697Z,103043.66
2023-01-25T12:35:25.781Z,103048.09
2023-01-25T12:38:36.353Z,103041.03
2023-01-25T12:41:44.052Z,103044.59
2023-01-25T12:44:50.584Z,103036.59
2023-01-25T12:47:58.703Z,103028.59
2023-01-25T12:51:02.962Z,103014.44
2023-01-25T12:54:18.360Z,103017.06
2023-01-25T12:57:29.480Z,103015.28
2023-01-25T13:00:38.867Z,103017.03
2023-01-25T13:04:02.062Z,103011.72
2023-01-25T13:07:17.420Z,102993.97
2023-01-25T13:10:25.841Z,102996.66
2023-01-25T13:13:30.518Z,102993.97
2023-01-25T13:16:39.716Z,102990.44
2023-01-25T13:19:43.699Z,102986.00
2023-01-25T13:22:59.496Z,102973.56
2023-01-25T13:26:40.642Z,102970.91
2023-01-25T13:29:49.540Z,102963.81
2023-01-25T13:32:58.275Z,102954.91
2023-01-25T13:36:46.616Z,102956.69
2023-01-25T13:39:52.535Z,102955.81
2023-01-25T13:43:01.303Z,102951.38
2023-01-25T13:46:08.139Z,102939.81
2023-01-25T13:49:23.223Z,102938.06
2023-01-25T13:52:31.127Z,102938.06
2023-01-25T13:55:40.297Z,102938.94
2023-01-25T13:58:47.997Z,102931.84
2023-01-25T14:01:52.244Z,102919.41
2023-01-25T14:04:55.164Z,102922.97
2023-01-25T14:07:59.579Z,102914.97
2023-01-25T14:11:02.902Z,102914.09
2023-01-25T14:14:19.238Z,102916.75
2023-01-25T14:17:24.420Z,102909.66
2023-01-25T14:20:27.431Z,102903.44
2023-01-25T14:23:32.727Z,102901.66
2023-01-25T14:26:38.056Z,102897.22
2023-01-25T14:29:41.569Z,102899.88
2023-01-25T14:32:44.581Z,102899.91
2023-01-25T14:36:00.059Z,102905.19
2023-01-25T14:39:18.059Z,102891.00
2023-01-25T14:42:21.528Z,102878.59
2023-01-25T14:45:27.001Z,102875.03
2023-01-25T14:48:37.304Z,102859.03
2023-01-25T14:51:44.913Z,102859.97
2023-01-25T14:54:53.681Z,102857.31
2023-01-25T14:58:00.810Z,102857.31
2023-01-25T15:01:04.637Z,102855.53
2023-01-25T15:04:12.858Z,102851.09
2023-01-25T15:07:34.846Z,102855.53
2023-01-25T15:10:50.906Z,102844.91
2023-01-25T15:14:02.702Z,102839.56
2023-01-25T15:17:05.607Z,102835.16
2023-01-25T15:20:30.326Z,102837.84
2023-01-25T15:23:33.164Z,102836.06
2023-01-25T15:26:37.535Z,102827.22
2023-01-25T15:29:41.169Z,102823.66
2023-01-25T15:32:44.641Z,102823.66
2023-01-25T15:35:47.902Z,102814.75
2023-01-25T15:38:50.918Z,102808.56
2023-01-25T15:41:55.126Z,102803.25
2023-01-25T15:44:57.945Z,102805.06
2023-01-25T15:48:00.772Z,102818.38
2023-01-25T15:51:03.849Z,102804.16
2023-01-25T15:54:07.417Z,102795.31
2023-01-25T15:57:20.762Z,102783.78
2023-01-25T16:00:23.994Z,102789.13
2023-01-25T16:03:26.866Z,102784.69
2023-01-25T16:06:42.024Z,102775.81
2023-01-25T16:09:44.842Z,102765.16
2023-01-25T16:12:49.471Z,102768.69
2023-01-25T16:15:54.931Z,102761.59
2023-01-25T16:18:57.773Z,102762.44
2023-01-25T16:22:00.665Z,102764.25
2023-01-25T16:25:04.510Z,102759.78
2023-01-25T16:28:14.529Z,102750.06
2023-01-25T16:31:31.347Z,102756.25
2023-01-25T16:34:35.090Z,102758.03
2023-01-25T16:37:37.901Z,102748.28
2023-01-25T16:40:40.714Z,102749.19
2023-01-25T16:43:47.113Z,102736.75
2023-01-25T16:46:50.352Z,102736.75
2023-01-25T16:49:53.496Z,102732.31
2023-01-25T16:52:56.947Z,102726.09
2023-01-25T16:56:00.520Z,102727.88
2023-01-25T16:59:06.486Z,102727.84
2023-01-25T17:02:12.262Z,102720.78
2023-01-25T17:05:15.183Z,102726.09
2023-01-25T17:08:18.030Z,102725.22
2023-01-25T17:11:21.620Z,102722.53
2023-01-25T17:14:25.824Z,102719.00
2023-01-25T17:17:30.892Z,102713.69
2023-01-25T17:20:33.742Z,102708.38
2023-01-25T17:23:38.566Z,102701.25
2023-01-25T17:26:41.802Z,102692.38
2023-01-25T17:29:46.070Z,102701.28
2023-01-25T17:32:48.982Z,102698.59
2023-01-25T17:35:52.648Z,102687.03
2023-01-25T17:38:55.486Z,102681.72
2023-01-25T17:41:58.413Z,102685.31
2023-01-25T17:45:02.695Z,102681.72
2023-01-25T17:48:06.580Z,102683.53
2023-01-25T17:51:09.661Z,102672.00
2023-01-25T17:54:13.339Z,102660.47
2023-01-25T17:57:18.015Z,102664.91
2023-01-25T18:00:23.120Z,102667.56
2023-01-25T18:03:26.069Z,102665.81
2023-01-25T18:06:30.712Z,102666.69
2023-01-25T18:09:35.776Z,102658.69
2023-01-25T18:12:38.723Z,102657.78
2023-01-25T18:15:42.974Z,102649.84
2023-01-25T18:18:46.323Z,102650.69
2023-01-25T18:21:49.197Z,102641.84
2023-01-25T18:24:52.172Z,102644.53
2023-01-25T18:27:54.995Z,102638.31
2023-01-25T18:31:02.667Z,102633.88
2023-01-25T18:34:05.727Z,102634.75
2023-01-25T18:37:17.831Z,102629.44
2023-01-25T18:40:21.139Z,102626.78
2023-01-25T18:43:24.460Z,102625.88
2023-01-25T18:46:28.862Z,102623.22
2023-01-25T18:49:31.735Z,102609.00
2023-01-25T18:52:36.408Z,102612.53
2023-01-25T18:55:39.754Z,102611.66
2023-01-25T18:58:43.653Z,102610.75
2023-01-25T19:01:47.991Z,102603.66
2023-01-25T19:04:50.913Z,102600.13
2023-01-25T19:07:53.872Z,102609.88
2023-01-25T19:11:01.259Z,102602.78
2023-01-25T19:14:04.227Z,102601.00
2023-01-25T19:17:08.820Z,102593.00
2023-01-25T19:20:12.516Z,102585.03
2023-01-25T19:23:15.328Z,102577.94
2023-01-25T19:26:19.839Z,102578.81
2023-01-25T19:29:23.223Z,102580.59
2023-01-25T19:32:27.649Z,102571.72
2023-01-25T19:35:30.487Z,102562.00
2023-01-25T19:38:33.844Z,102563.78
2023-01-25T19:41:38.737Z,102556.69
2023-01-25T19:44:41.655Z,102556.69
2023-01-25T19:47:45.893Z,102556.69
2023-01-25T19:50:48.748Z,102542.50
2023-01-25T19:53:55.303Z,102539.84
2023-01-25T19:56:58.557Z,102532.75
2023-01-25T20:00:01.333Z,102524.75
2023-01-25T20:03:15.943Z,102523.88
2023-01-25T20:06:20.876Z,102526.53
2023-01-25T20:09:27.880Z,102519.41
2023-01-25T20:12:31.093Z,102514.97
2023-01-25T20:15:33.932Z,102503.44
2023-01-25T20:18:38.470Z,102508.75
2023-01-25T20:21:41.979Z,102514.06
2023-01-25T20:24:45.148Z,102513.19
2023-01-25T20:27:47.998Z,102509.63
2023-01-25T20:30:51.046Z,102508.75
2023-01-25T20:33:57.157Z,102509.63
2023-01-25T20:37:00.561Z,102501.66
2023-01-25T20:40:03.548Z,102499.00
2023-01-25T20:43:06.382Z,102506.09
2023-01-25T20:46:09.239Z,102501.63
2023-01-25T20:49:16.519Z,102497.16
2023-01-25T20:52:19.385Z,102494.50
2023-01-25T20:55:22.291Z,102488.31
2023-01-25T20:58:25.729Z,102486.53
2023-01-25T21:01:30.757Z,102492.78
2023-01-25T21:04:34.940Z,102490.13
2023-01-25T21:07:37.776Z,102479.47
2023-01-25T21:10:40.690Z,102475.00
2023-01-25T21:13:43.640Z,102472.31
2023-01-25T21:16:46.513Z,102476.72
2023-01-25T21:19:50.731Z,102474.06
2023-01-25T21:22:53.525Z,102471.41
2023-01-25T21:25:56.417Z,102470.50
2023-01-25T21:29:01.003Z,102465.22
2023-01-25T21:32:04.431Z,102465.22
2023-01-25T21:35:10.238Z,102470.50
2023-01-25T21:38:13.478Z,102456.31
2023-01-25T21:41:20.263Z,102445.66
2023-01-25T21:44:40.805Z,102438.59
2023-01-25T21:47:43.588Z,102441.25
2023-01-25T21:51:05.411Z,102446.59
2023-01-25T21:54:08.250Z,102442.16
2023-01-25T21:57:11.736Z,102443.03
2023-01-25T22:00:16.971Z,102435.94
2023-01-25T22:03:19.839Z,102448.34
2023-01-25T22:06:24.093Z,102450.09
2023-01-25T22:09:27.363Z,102451.03
2023-01-25T22:12:30.230Z,102444.78
2023-01-25T22:15:33.792Z,102447.44
2023-01-25T22:18:38.651Z,102446.59
2023-01-25T22:21:42.995Z,102451.03
2023-01-25T22:24:45.871Z,102443.94
2023-01-25T22:27:56.308Z,102449.25
2023-01-25T22:30:59.203Z,102443.03
2023-01-25T22:34:02.090Z,102438.59
2023-01-25T22:37:06.314Z,102443.91
2023-01-25T22:40:10.751Z,102436.81
2023-01-25T22:43:13.875Z,102437.72
2023-01-25T22:46:18.968Z,102440.38
2023-01-25T22:49:21.782Z,102439.44
2023-01-25T22:52:26.349Z,102431.47
2023-01-25T22:55:30.905Z,102426.13
2023-01-25T22:58:35.411Z,102419.06
2023-01-25T23:01:38.294Z,102411.94
2023-01-25T23:04:41.284Z,102412.81
2023-01-25T23:07:45.571Z,102410.16
2023-01-25T23:10:48.442Z,102401.28
2023-01-25T23:14:06.943Z,102404.81
2023-01-25T23:17:29.441Z,102396.84
2023-01-25T23:20:32.301Z,102404.78
2023-01-25T23:23:36.578Z,102394.19
2023-01-25T23:26:40.879Z,102394.19
2023-01-25T23:29:44.015Z,102380.88
2023-01-25T23:32:49.149Z,102372.88
2023-01-25T23:35:52.087Z,102372.88
2023-01-25T23:38:57.162Z,102374.72
2023-01-25T23:42:00.106Z,102367.66
2023-01-25T23:45:03.041Z,102362.31
2023-01-25T23:48:06.078Z,102365.00
2023-01-25T23:51:10.938Z,102361.44
2023-01-25T23:54:15.297Z,102359.66
2023-01-25T23:57:18.313Z,102358.78
